Tiempo atmosférico en la estación meteorológica de Ceuta, Ceuta (87 m.)



Fecha
DESCASC
Temp. máxima en grados centígrados (hora)
DESCASC
Temp. mínima en grados centígrados (hora)
DESCASC
Temp. media en grados centígrados
DESCASC
Racha de viento máxima en m/sg (hora)
DESCASC
Velocidad máxima media en intervalos de 10 minutos(hora)
DESCASC
Precipitaciones diarias en mm
DESCASC
Precipitaciones de 00:00 a 06:00 en mm
DESCASC
Precipitaciones de 06:00 a 12:00 en mm
DESCASC
Precipitaciones de 12:00 a 18:00 en mm
DESCASC
Precipitaciones de 18:00 a 24:00 en mm
DESCASC
15-08-2019 25.8 (14:20) 21.1 (02:40) 23.4 6.39 (19:20) 4.72 (19:20) 0 0 0 0 0
14-08-2019 27.6 (15:00) 21.6 (00:00) 24.6 8.06 (16:10) 5.56 (15:50) 0 0 0 0 0
13-08-2019 28.1 (14:50) 19.5 (00:00) 23.8 9.17 (04:00) 5.56 (04:10) 0 0 0 0 0
12-08-2019 32.4 (15:10) 22.8 (00:00) 27.6 12.5 (01:20) 6.67 (11:10) 0 0 0 0 0
11-08-2019 30.7 (15:40) 24.1 (00:00) 27.4 11.67 (16:00) 5 (14:10) 0 0 0 0 0
10-08-2019 34.3 (16:30) 23 (00:00) 28.6 15 (03:30) 6.94 (16:50) 0 0 0 0 0
09-08-2019 30.9 (15:50) 23.7 (00:00) 27.3 16.67 (04:10) 8.89 (03:40) 0 0 0 0 0
08-08-2019 36.4 (17:00) 24.5 (00:00) 30.5 17.5 (03:20) 10.28 (03:20) 0 0 0 0 0
07-08-2019 34.9 (17:30) 21.6 (00:00) 28.3 14.44 (10:10) 8.06 (10:00) 0 0 0 0 0
06-08-2019 33.8 (16:00) 22.5 (00:00) 28.1 5.83 (16:30) 4.17 (16:30) 0 0 0 0 0
05-08-2019 30.7 (12:10) 21.3 (00:00) 26 5.56 (12:30) 3.89 (12:30) 0 0 0 0 0
04-08-2019 30.9 (15:20) 20.5 (00:00) 25.7 5.56 (17:10) 4.17 (17:10) 0 0 0 0 0
03-08-2019 27.6 (16:20) 20.4 (00:00) 24 5.28 (11:20) 3.33 (11:00) 0 0 0 0 0
02-08-2019 34 (16:00) 21.1 (00:00) 27.6 6.39 (16:20) 3.89 (16:10) 0 0 0 0 0
01-08-2019 27.3 (17:00) 21.9 (00:00) 24.6 6.39 (18:50) 4.72 (19:00) 0 0 0 0 0
31-07-2019 26.8 (14:10) 19.9 (00:00) 23.3 9.72 (14:20) 5.56 (12:00) 0 0 0 0 0
30-07-2019 34.2 (15:00) 23.1 (00:00) 28.7 13.61 (01:50) 6.67 (01:50) 0 0 0 0 0
29-07-2019 32.4 (18:00) 18.8 (00:00) 25.6 10.83 (23:59) 5.56 (23:30) 0 0 0 0 0
28-07-2019 27.9 (16:30) 20.2 (00:00) 24.1 11.39 (16:50) 4.44 (17:00) 0 0 0 0 0
27-07-2019 25.8 (14:40) 20.7 (00:00) 23.3 14.72 (13:10) 5.56 (13:00) 0 0 0 0 0
26-07-2019 27.7 (15:40) 21.5 (00:00) 24.6 15 (16:40) 6.11 (02:40) 0 0 0 0 0
25-07-2019 31 (15:10) 23.3 (00:00) 27.1 6.39 (13:40) 4.44 (17:50) 0 0 0 0 0
24-07-2019 27.7 (16:50) 21.7 (00:00) 24.7 5.83 (15:50) 3.89 (15:50) 0 0 0 0 0
23-07-2019 25.7 (16:30) 21.8 (00:00) 23.8 6.67 (00:50) 4.17 (01:50) 0 0 0 0 0
22-07-2019 27.5 (16:40) 22.5 (00:00) 25 9.72 (14:10) 5.83 (15:30) 0.2 0 0.2 0 0
21-07-2019 27.9 (14:50) 21.8 (00:00) 24.8 6.11 (22:00) 3.89 (21:50) 0 0 0 0 0
20-07-2019 30.8 (15:30) 22.5 (00:00) 26.6 5.83 (03:00) 3.61 (03:10) 0 0 0 0 0
19-07-2019 25.7 (15:00) 18.8 (00:00) 22.3 8.06 (16:10) 5 (16:10) 0 0 0 0 0

Gráficas

Temp. máximas Temp. mínimas Temp. medias Precipitaciones Rachas de viento máximas Velocidades máximas media en intervalos de 10 minutos

Datos horarios

Fecha y hora oficial Temperatura (ºC) Velocidad del viento (km/h) Dirección del viento Racha (km/h) Dirección de racha Precipitación (mm) Presión (hPa) Tendencia (hPa) Humedad (%)
2019-08-17 23:00:00 22.6 11 Sur 15 Sur 0 1003.4 0.8 93
2019-08-17 22:00:00 22.8 12 Sur 18 Sur 0 1003 -0.1 91
2019-08-17 21:00:00 23.2 11 Sur 15 Sur 0 1002.6 -1.1 88
2019-08-17 20:00:00 23.9 10 Sur 15 Sur 0 1002.6 -1.4 84
2019-08-17 19:00:00 24.7 9 Sur 18 Sudeste 0 1003.1 -1.4 80
2019-08-17 18:00:00 25.4 11 Sudeste 17 Sudeste 0 1003.7 -1.4 77
2019-08-17 17:00:00 25.5 10 Sudeste 17 Sudeste 0 1004 -1.4 77
2019-08-17 16:00:00 25.7 12 Sudeste 16 Sudeste 0 1004.5 -1.2 75
2019-08-17 15:00:00 25.9 12 Sudeste 18 Sudeste 0 1005.1 -1 75
2019-08-17 14:00:00 25.4 11 Sudeste 18 Sudeste 0 1005.4 -0.5 76
2019-08-17 13:00:00 25.5 8 Sudeste 16 Sudeste 0 1005.7 -0.1 76
2019-08-17 12:00:00 23.1 8 Norte 14 Norte 0 1006.1 0.6 84
2019-08-17 11:00:00 23.3 5 Norte 9 Norte 0 1005.9 0.6 85
2019-08-17 10:00:00 22.6 6 Sudeste 11 Sudeste 0 1005.8 0.6 93
2019-08-17 09:00:00 21.1 6 Sur 10 Sur 0 1005.5 0.5 99
2019-08-17 08:00:00 20 7 Sur 9 Sur 0 1005.3 0.1 98
2019-08-17 07:00:00 20.9 7 Sur 14 Sur 0 1005.2 -0.2 95
2019-08-17 06:00:00 22.4 9 Sur 17 Sur 0 1005 -0.8 91
2019-08-17 05:00:00 22.2 9 Sur 14 Sur 0 1005.2 -1.1 93
2019-08-17 04:00:00 22.1 9 Sur 18 Sur 0 1005.4 -1.1 94
2019-08-17 03:00:00 22.2 9 Sur 16 Sur 0 1005.8 -0.8 93
2019-08-17 02:00:00 22.6 9 Sur 15 Sur 0 1006.3 -0.1 92
2019-08-17 01:00:00 22.8 9 Sur 14 Sur 0 1006.5 0.7 91
2019-08-17 00:00:00 22.8 8 Sur 13 Este 0 1006.6 1 91
2019-08-16 23:00:00 22.9 8 Sudeste 13 Sur 0 1006.4 1.1 91
2019-08-16 22:00:00 22.7 5 Sudeste 13 Sur 0 1005.8 0.2 90
2019-08-16 21:00:00 23.6 7 Sur 18 Sur 0 1005.6 -0.4 85
2019-08-16 20:00:00 24.3 13 Sur 22 Sur 0 1005.3 -1 81
2019-08-16 19:00:00 25.2 17 Sur 23 Sudeste 0 1005.6 -1.3 77
2019-08-16 18:00:00 26.2 10 Sudeste 17 Sudeste 0 1006 -1.3 73
2019-08-16 17:00:00 26.1 11 Sur 19 Sur 0 1006.3 -1.4 75
2019-08-16 16:00:00 25.3 12 Sudeste 21 Sudeste 0 1006.9 -1.1 78
2019-08-16 15:00:00 25.1 11 Sudeste 18 Sur 0 1007.3 -0.7 79
2019-08-16 14:00:00 24.8 10 Sudeste 18 Sudeste 0 1007.7 0.1 81
2019-08-16 13:00:00 24.2 10 Sudeste 17 Sudeste 0 1008 0.7 83
2019-08-16 12:00:00 24.8 9 Sudeste 16 Sudeste 0 1008 1 80
2019-08-16 11:00:00 25.1 7 Sudeste 13 Sur 0 1007.6 1.1 80
2019-08-16 10:00:00 22.9 4 Nordeste 12 Sur 0 1007.3 1.1 83
2019-08-16 09:00:00 23.8 6 Sur 15 Sur -- 1007 0.7 86
2019-08-16 08:00:00 22.2 9 Sur 17 Sudoeste 0 1006.5 -0.1 93
2019-08-16 07:00:00 22.2 12 Sur 18 Sur 0 1006.2 -0.4 93
2019-08-16 06:00:00 22.3 10 Sur 18 Sur 0 1006.3 -0.7 92
2019-08-16 05:00:00 22.6 10 Sur 17 Sur 0 1006.6 -0.5 92
2019-08-16 04:00:00 22.6 9 Sur 14 Sur 0 1006.6 -0.5 93
2019-08-16 03:00:00 22.6 5 Sur 10 Sudeste 0 1007 -0.2 94
2019-08-16 02:00:00 22.4 8 Sur 12 Sur 0 1007.1 -0.1 96
2019-08-16 01:00:00 22.5 5 Sudoeste 10 Sur 0 1007.1 0.5 94
2019-08-16 00:00:00 22.6 7 Sur 12 Sudeste 0 1007.2 1 94
2019-08-15 23:00:00 22.9 8 Sur 11 Sudeste 0 1007.2 1.3 91
2019-08-15 22:00:00 21.9 0 Calma 11 Sudeste 0 1006.6 0.6 92
2019-08-15 21:00:00 23.4 7 Sudeste 22 Sur 0 1006.2 -0.2 91
2019-08-15 20:00:00 24.1 14 Sur 23 Sur 0 1005.9 -0.7 87
2019-08-15 19:00:00 25.1 14 Sur 22 Sur 0 1006 -1.1 79
2019-08-15 18:00:00 25.5 14 Sur 21 Sur 0 1006.4 -1.1 76
2019-08-15 17:00:00 25.6 12 Sudeste 20 Sur 0 1006.6 -1.2 77
2019-08-15 16:00:00 24.7 14 Sudeste 23 Sudeste 0 1007.1 -0.9 80
2019-08-15 15:00:00 24.7 14 Sudeste 21 Sudeste 0 1007.5 -0.5 80
2019-08-15 14:00:00 25.5 11 Sudeste 16 Sudeste 0 1007.8 -0.1 78
2019-08-15 13:00:00 25.1 10 Sudeste 19 Sudeste 0 1008 0.4 79
2019-08-15 12:00:00 25.1 12 Sudeste 17 Sudeste 0 1008 0.6 80
2019-08-15 11:00:00 24.6 10 Sudeste 17 Sudeste 0 1007.9 0.7 81
2019-08-15 10:00:00 24.4 8 Sur 14 Sur 0 1007.6 0.9 82
2019-08-15 09:00:00 22.6 7 Sur 10 Sur 0 1007.4 0.8 92
2019-08-15 08:00:00 22.2 4 Este 14 Sudeste 0 1007.2 0.4 94
2019-08-15 07:00:00 22.1 6 Sudeste 12 Este 0 1006.7 -0.2 97
2019-08-15 06:00:00 22 7 Este 12 Este 0 1006.6 -0.7 98
2019-08-15 05:00:00 21.5 6 Sur 12 Sur 0 1006.8 -0.8 99
2019-08-15 04:00:00 21.2 6 Sur 12 Sur 0 1006.9 -1 99
2019-08-15 03:00:00 21.1 5 Sur 12 Sur 0 1007.3 -0.6 99
2019-08-15 02:00:00 21.7 8 Sur 10 Sur 0 1007.6 0 98
2019-08-15 01:00:00 22.1 5 Sur 10 Sur 0 1007.9 1 98
2019-08-15 00:00:00 21.9 3 Sur 11 Sudeste 0 1007.9 1.3 97
2019-08-14 23:00:00 22.6 5 Sudeste 13 Sur 0 1007.6 1.1 97
2019-08-14 22:00:00 22.9 8 Sur 16 Sur 0 1006.9 0.2 95
2019-08-14 21:00:00 23.2 9 Sur 18 Sur 0 1006.6 -0.5 95
2019-08-14 20:00:00 23.6 11 Sur 16 Sur 0 1006.5 -1 92
2019-08-14 19:00:00 24.1 10 Sur 17 Sudeste 0 1006.7 -1.4 89
2019-08-14 18:00:00 24.8 11 Sudeste 24 Sudeste 0 1007.1 -1.4 85
2019-08-14 17:00:00 26.5 16 Este 29 Este 0 1007.5 -1.4 79
2019-08-14 16:00:00 25.3 17 Este 28 Sudeste 0 1008.1 -1.1 83
2019-08-14 15:00:00 27.6 16 Este 27 Sudeste 0 1008.5 -0.9 74
2019-08-14 14:00:00 27.2 18 Este 28 Este 0 1008.9 -0.1 76
2019-08-14 13:00:00 26.2 18 Este 27 Este 0 1009.2 0.5 81
2019-08-14 12:00:00 25.6 16 Este 28 Este 0 1009.4 1 84
2019-08-14 11:00:00 25.8 15 Este 26 Sudeste 0 1009 1 81
2019-08-14 10:00:00 24.1 15 Este 25 Sudeste 0 1008.7 1 90
2019-08-14 09:00:00 23.7 12 Este 21 Este 0 1008.4 0.8 93
2019-08-14 08:00:00 23 12 Este 21 Este 0 1008 0.4 97
2019-08-14 07:00:00 22.8 11 Este 21 Este 0 1007.7 -0.1 97
2019-08-14 06:00:00 22.9 10 Este 18 Este 0 1007.6 -0.4 96
2019-08-14 05:00:00 22.8 8 Sudeste 17 Este 0 1007.6 -0.6 95
2019-08-14 04:00:00 23 8 Sudeste 13 Sudeste 0 1007.8 -0.2 95
2019-08-14 03:00:00 23 9 Este 15 Este 0 1008 0 94
2019-08-14 02:00:00 22.8 10 Este 17 Sudeste 0 1008.2 0.5 95
2019-08-14 01:00:00 22.6 8 Sudeste 14 Nordeste 0 1008 1 96
2019-08-14 00:00:00 22.9 7 Sudeste 19 Sur 0 1008 1.6 92
2019-08-13 23:00:00 23 9 Sudeste 15 Sur 0 1007.7 1.6 92
2019-08-13 22:00:00 22.7 9 Este 16 Este 0 1007 1 94
2019-08-13 21:00:00 22.1 4 Norte 10 Sur 0 1006.4 0.4 88
2019-08-13 20:00:00 24.5 6 Sudeste 20 Sur 0 1006.1 -0.5 77
2019-08-13 19:00:00 25.5 11 Sur 23 Sur 0 1006 -1.1 72
2019-08-13 18:00:00 25.7 12 Sur 19 Sur 0 1006 -1.1 73
2019-08-13 17:00:00 26.1 10 Sudeste 19 Sudeste 0 1006.6 -0.7 64
2019-08-13 16:00:00 26.2 13 Sudeste 20 Sur 0 1007.1 -0.3 62
2019-08-13 15:00:00 27.6 8 Nordeste 15 Norte 0 1007.1 -0.3 39
2019-08-13 14:00:00 26.4 10 Norte 15 Norte 0 1007.3 0.2 46
2019-08-13 13:00:00 24.3 8 Nordeste 14 Norte 0 1007.4 0.8 60
2019-08-13 12:00:00 22.9 8 Nordeste 13 Nordeste 0 1007.4 1.4 74
2019-08-13 11:00:00 21.7 4 Nordeste 14 Nordeste 0 1007.1 1.6 77
2019-08-13 10:00:00 21 8 Nordeste 15 Nordeste 0 1006.6 1.5 78
2019-08-13 09:00:00 20.9 7 Norte 12 Norte 0 1006 1.2 73
2019-08-13 08:00:00 19.7 4 Norte 8 Nordeste 0 1005.5 0.7 70
2019-08-13 07:00:00 20.1 3 Noroeste 12 Norte 0 1005.1 0.4 65
2019-08-13 06:00:00 21 9 Norte 23 Norte 0 1004.8 0 61
2019-08-13 05:00:00 21.2 13 Noroeste 31 Noroeste 0 1004.8 -0.4 62
2019-08-13 04:00:00 23 17 Noroeste 33 Noroeste 0 1004.7 -0.4 42
2019-08-13 03:00:00 24.2 6 Norte 17 Norte 0 1004.8 -0.1 32
2019-08-13 02:00:00 23.7 2 Sudeste 9 Sudoeste 0 1005.2 0.8 32
2019-08-13 01:00:00 24.1 5 Sudoeste 9 Sur 0 1005.1 1.5 31
2019-08-13 00:00:00 24.5 4 Sur 10 Sudoeste 0 1004.9 1.9 31
2019-08-12 23:00:00 26.1 8 Sudoeste 13 Sudoeste 0 1004.4 1.9 29
2019-08-12 22:00:00 26.1 6 Oeste 29 Noroeste 0 1003.6 1.3 27
2019-08-12 21:00:00 26.6 12 Oeste 32 Oeste 0 1003 0.4 24
2019-08-12 20:00:00 28.3 11 Oeste 27 Oeste 0 1002.5 -0.8 24
2019-08-12 19:00:00 30.8 13 Oeste 30 Oeste 0 1002.3 -1.9 23
2019-08-12 18:00:00 31.4 12 Oeste 33 Oeste 0 1002.6 -2.1 24
2019-08-12 17:00:00 32 11 Oeste 32 Oeste 0 1003.3 -1.6 24
2019-08-12 16:00:00 31.5 13 Oeste 33 Noroeste 0 1004.2 -0.7 21
2019-08-12 15:00:00 31.7 8 Sudoeste 27 Este 0 1004.7 0.1 19
2019-08-12 14:00:00 30 11 Este 28 Noroeste 0 1004.9 0.7 23
2019-08-12 13:00:00 28.9 9 Oeste 39 Oeste 0 1004.9 1 19
2019-08-12 12:00:00 30.5 21 Noroeste 45 Noroeste 0 1004.6 1 17
2019-08-12 11:00:00 29.8 21 Noroeste 44 Oeste 0 1004.2 0.7 19
2019-08-12 10:00:00 28.7 19 Noroeste 40 Oeste 0 1003.9 0.6 20
2019-08-12 09:00:00 28.1 21 Noroeste 41 Oeste 0 1003.6 0.1 21
2019-08-12 08:00:00 24.9 6 Sudoeste 19 Sudoeste 0 1003.5 -0.2 27
2019-08-12 07:00:00 22.8 6 Sur 17 Sudoeste 0 1003.3 -0.8 37
2019-08-12 06:00:00 23.2 9 Sur 15 Sudoeste 0 1003.5 -1.2 40
2019-08-12 05:00:00 24.3 8 Sur 27 Oeste 0 1003.7 -1.5 35
2019-08-12 04:00:00 24.7 8 Sudeste 16 Sur 0 1004.1 -1.2 33
2019-08-12 03:00:00 25.4 8 Sudeste 23 Sudoeste 0 1004.7 -1.1 33
2019-08-12 02:00:00 26.3 9 Oeste 45 Noroeste 0 1005.2 -0.5 29
2019-08-12 01:00:00 26.5 14 Oeste 33 Noroeste 0 1005.3 0 29
2019-08-12 00:00:00 24.7 8 Sur 35 Noroeste 0 1005.8 0.8 42
2019-08-11 23:00:00 25.9 10 Oeste 35 Oeste 0 1005.7 1.2 30
2019-08-11 22:00:00 25.4 8 Oeste 24 Noroeste 0 1005.3 0.9 31
2019-08-11 21:00:00 24.9 7 Sudoeste 24 Oeste 0 1005 0.6 44
2019-08-11 20:00:00 27.3 8 Oeste 28 Oeste 0 1004.5 0.1 37
2019-08-11 19:00:00 28.6 13 Sudoeste 34 Sudoeste 0 1004.4 -0.7 32
2019-08-11 18:00:00 29.8 10 Oeste 42 Oeste 0 1004.4 -1.3 31
2019-08-11 17:00:00 29.3 15 Oeste 35 Oeste 0 1004.4 -1.8 32
2019-08-11 16:00:00 29.7 14 Oeste 42 Sudoeste 0 1005.1 -1.6 33
2019-08-11 15:00:00 29.9 13 Oeste 40 Oeste 0 1005.7 -1.1 31
2019-08-11 14:00:00 30.2 15 Oeste 37 Oeste 0 1006.2 -0.5 21
2019-08-11 13:00:00 30 14 Oeste 34 Oeste 0 1006.7 0.1 26
2019-08-11 12:00:00 28.7 11 Oeste 29 Noroeste 0 1006.8 0.8 35
2019-08-11 11:00:00 28.2 8 Oeste 23 Oeste 0 1006.7 1.5 40
2019-08-11 10:00:00 25.7 8 Sudoeste 28 Oeste 0 1006.6 1.5 46
2019-08-11 09:00:00 24.8 6 Sudoeste 27 Noroeste 0 1006 1 50
2019-08-11 08:00:00 25.5 10 Noroeste 29 Noroeste 0 1005.2 0.3 38
2019-08-11 07:00:00 24.2 5 Sur 23 Oeste 0 1005.1 -0.2 48
2019-08-11 06:00:00 25.8 8 Noroeste 31 Noroeste 0 1005 -0.5 39
2019-08-11 05:00:00 24.8 10 Oeste 28 Oeste 0 1004.9 -0.2 44
2019-08-11 04:00:00 24.9 4 Sudoeste 37 Noroeste 0 1005.3 0.1 48
2019-08-11 03:00:00 26.5 12 Oeste 41 Noroeste 0 1005.5 0.5 39
2019-08-11 02:00:00 25.8 15 Noroeste 41 Noroeste 0 1005.1 -0.5 36
2019-08-11 01:00:00 25.7 10 Sudeste 32 Oeste 0 1005.2 0.2 39
2019-08-11 00:00:00 26.3 16 Noroeste 38 Oeste 0 1005 0.6 37
2019-08-10 23:00:00 26.7 14 Noroeste 44 Oeste 0 1005.6 1.4 43
2019-08-10 22:00:00 27.4 12 Noroeste 31 Noroeste 0 1005 0.7 45
2019-08-10 21:00:00 29.1 8 Oeste 29 Noroeste 0 1004.4 -0.2 43
2019-08-10 20:00:00 30.6 15 Noroeste 38 Oeste 0 1004.2 -0.7 42
2019-08-10 19:00:00 31.3 11 Oeste 29 Oeste 0 1004.3 -1.5 42
2019-08-10 18:00:00 32.3 17 Noroeste 36 Noroeste 0 1004.6 -2 43
2019-08-10 17:00:00 33.9 22 Noroeste 44 Noroeste 0 1004.9 -2.1 40
2019-08-10 16:00:00 33.6 21 Noroeste 39 Oeste 0 1005.8 -1.7 41
2019-08-10 15:00:00 33.2 22 Noroeste 38 Noroeste 0 1006.6 -1.1 41
2019-08-10 14:00:00 32.6 21 Noroeste 41 Noroeste 0 1007 -0.4 40
2019-08-10 13:00:00 32.1 6 Sudoeste 15 Noroeste 0 1007.5 0.4 43
2019-08-10 12:00:00 30.2 11 Sudeste 16 Sudeste 0 1007.7 1.2 52
2019-08-10 11:00:00 30 9 Norte 21 Norte 0 1007.4 1.6 52
2019-08-10 10:00:00 27.6 10 Sudeste 18 Sudeste 0 1007.1 1.8 61
2019-08-10 09:00:00 25.2 6 Sur 21 Sur 0 1006.5 0.8 71
2019-08-10 08:00:00 23.2 6 Sudeste 21 Sur 0 1005.8 -0.5 78
2019-08-10 07:00:00 23.2 7 Sudoeste 19 Sur 0 1005.3 -1.5 79
2019-08-10 06:00:00 23.4 5 Noroeste 14 Sudeste 0 1005.7 -1.5 78
2019-08-10 05:00:00 23.4 6 Nordeste 16 Este 0 1006.3 -0.4 79
2019-08-10 04:00:00 24.6 12 Este 54 Oeste 0 1006.8 0.1 74
2019-08-10 03:00:00 24.2 14 Noroeste 41 Sudoeste 0 1007.2 0.7 76
2019-08-10 02:00:00 25.8 7 Este 27 Oeste 0 1006.7 0.5 64
2019-08-10 01:00:00 25.3 8 Norte 22 Sudoeste 0 1006.7 1.4 65
2019-08-10 00:00:00 25 6 Sudoeste 21 Sudoeste 0 1006.5 1.4 64
2019-08-09 23:00:00 24.8 7 Sudoeste 24 Oeste 0 1006.2 1.8 69
2019-08-09 22:00:00 25 13 Sudoeste 25 Oeste 0 1005.3 1.5 66
2019-08-09 21:00:00 25.9 12 Sur 27 Oeste 0 1005.1 0.9 55
2019-08-09 20:00:00 28.3 12 Oeste 59 Noroeste 0 1004.4 -0.8 45
2019-08-09 19:00:00 29 24 Noroeste 58 Noroeste 0 1003.8 -2.5 46
2019-08-09 18:00:00 29.6 22 Noroeste 51 Noroeste 0 1004.2 -2.4 45
2019-08-09 17:00:00 30 14 Oeste 36 Noroeste 0 1005.2 -1.7 46
2019-08-09 16:00:00 30.5 8 Sudoeste 42 Noroeste 0 1006.3 -0.6 45
2019-08-09 15:00:00 30.3 8 Sudoeste 25 Sudoeste 0 1006.6 0 48
2019-08-09 14:00:00 29.4 6 Norte 29 Norte 0 1006.9 0.4 53
2019-08-09 13:00:00 29.1 9 Sudeste 23 Oeste 0 1006.9 1.2 54
2019-08-09 12:00:00 28.6 15 Noroeste 44 Norte 0 1006.6 1.2 57
2019-08-09 11:00:00 27.8 6 Sudoeste 39 Oeste 0 1006.5 1.4 58
2019-08-09 10:00:00 26.1 9 Noroeste 39 Oeste 0 1005.7 0.7 63
2019-08-09 09:00:00 25.1 12 Oeste 49 Noroeste 0 1005.4 1.6 66
2019-08-09 08:00:00 23.8 16 Oeste 50 Noroeste 0 1005.1 1.1 73
2019-08-09 07:00:00 25.7 11 Sudoeste 48 Oeste 0 1005 0.9 58
2019-08-09 06:00:00 24.8 30 Noroeste 57 Noroeste 0 1003.8 -0.6 67
2019-08-09 05:00:00 25.5 31 Noroeste 60 Noroeste 0 1004 -1.1 58
2019-08-09 04:00:00 24.8 28 Noroeste 57 Norte 0 1004.1 -0.9 63
2019-08-09 03:00:00 26.6 28 Noroeste 50 Oeste 0 1004.4 0.1 39
2019-08-09 02:00:00 27.1 8 Sudeste 19 Sur 0 1005.1 1 32
2019-08-09 01:00:00 27.5 5 Sudeste 14 Norte 0 1005 1.9 32
2019-08-09 00:00:00 28 5 Norte 17 Sudoeste 0 1004.3 1.6 32
2019-08-08 23:00:00 28.3 3 Sur 9 Sudoeste 0 1004.1 1.7 29
2019-08-08 22:00:00 28.9 5 Sudoeste 12 Norte 0 1003.1 0.6 31
2019-08-08 21:00:00 30.4 4 Sudeste 18 Oeste 0 1002.7 0.1 32
2019-08-08 20:00:00 32.6 6 Sudoeste 20 Oeste 0 1002.4 -0.4 32
2019-08-08 19:00:00 34.2 9 Sudeste 15 Nordeste 0 1002.5 -0.8 25
2019-08-08 18:00:00 35.5 9 Sur 18 Sudoeste 0 1002.6 -0.9 21
2019-08-08 17:00:00 36.3 6 Sudoeste 22 Oeste 0 1002.8 -0.8 20
2019-08-08 16:00:00 35.1 8 Sudeste 27 Noroeste 0 1003.3 -0.7 24
2019-08-08 15:00:00 34.2 9 Sudeste 31 Oeste 0 1003.5 -0.5 26
2019-08-08 14:00:00 35.1 15 Noroeste 33 Noroeste 0 1003.6 -0.2 22
2019-08-08 13:00:00 34.1 10 Noroeste 29 Noroeste 0 1004 0.2 26
2019-08-08 12:00:00 32.9 5 Sudoeste 25 Norte 0 1004 0.3 30
2019-08-08 11:00:00 30.6 7 Sur 10 Sudeste 0 1003.8 0.5 36
2019-08-08 10:00:00 28.5 4 Este 9 Sur 0 1003.8 0.9 46
2019-08-08 09:00:00 26.2 3 Sudeste 8 Oeste 0 1003.7 1.2 49
2019-08-08 08:00:00 24.7 3 Oeste 10 Sudeste 0 1003.3 1.3 53
2019-08-08 07:00:00 25 5 Sudeste 13 Sudeste 0 1002.9 1.1 51
2019-08-08 06:00:00 26.5 11 Sudeste 41 Sudoeste 0 1002.5 0.6 44
2019-08-08 05:00:00 28.1 13 Oeste 46 Noroeste 0 1002 -0.7 41
2019-08-08 04:00:00 28.1 24 Noroeste 63 Noroeste 0 1001.8 -1.4 41
2019-08-08 03:00:00 28 36 Noroeste 60 Noroeste 0 1001.9 -1.4 38
2019-08-08 02:00:00 29.3 24 Noroeste 48 Norte 0 1002.7 -0.4 27
2019-08-08 01:00:00 29 13 Oeste 37 Oeste 0 1003.2 0.7 27
2019-08-08 00:00:00 27.8 13 Oeste 31 Oeste 0 1003.3 1 35
2019-08-07 23:00:00 28.2 13 Oeste 33 Oeste 0 1003.1 1.2 30
2019-08-07 22:00:00 27.5 14 Oeste 42 Oeste 0 1002.5 0.6 38
2019-08-07 21:00:00 27.9 12 Oeste 35 Noroeste 0 1002.3 0.4 37
2019-08-07 20:00:00 29.2 12 Oeste 29 Oeste 0 1001.9 0 37
2019-08-07 19:00:00 31.2 18 Noroeste 37 Oeste 0 1001.9 -0.2 35
2019-08-07 18:00:00 34.1 18 Noroeste 40 Noroeste 0 1001.9 -0.4 27
2019-08-07 17:00:00 34.3 21 Noroeste 44 Noroeste 0 1001.9 -1.1 21
2019-08-07 16:00:00 33.8 19 Noroeste 39 Noroeste 0 1002.1 -0.9 25
2019-08-07 15:00:00 33 18 Noroeste 37 Noroeste 0 1002.3 -1 30
2019-08-07 14:00:00 32 18 Noroeste 42 Oeste 0 1003 0 33
2019-08-07 13:00:00 29.2 21 Noroeste 44 Noroeste 0 1003 0.2 46
2019-08-07 12:00:00 27.9 16 Noroeste 42 Noroeste 0 1003.3 1 54
2019-08-07 11:00:00 25.6 26 Noroeste 52 Noroeste 0 1003 0.6 60
2019-08-07 10:00:00 23.2 29 Noroeste 50 Noroeste 0 1002.8 0.9 73
2019-08-07 09:00:00 22.1 23 Noroeste 39 Noroeste 0 1002.3 0.2 76
2019-08-07 08:00:00 21.7 15 Noroeste 31 Noroeste 0 1002.4 0.7 77
2019-08-07 07:00:00 24.1 3 Nordeste 22 Sudoeste 0 1001.9 0 46
2019-08-07 06:00:00 23.9 4 Norte 14 Sudoeste 0 1002.1 0.3 43
2019-08-07 05:00:00 24.4 3 Sur 14 Sudoeste 0 1001.7 -0.5 45
2019-08-07 04:00:00 25.9 4 Sudoeste 38 Oeste 0 1001.9 0 38
2019-08-07 03:00:00 26.1 7 Oeste 23 Oeste 0 1001.8 -0.1 36
2019-08-07 02:00:00 26.7 4 Sudoeste 10 Sur 0 1002.2 0.4 34
2019-08-07 01:00:00 26.1 4 Sudoeste 10 Sur 0 1001.9 0.4 33
2019-08-07 00:00:00 26.4 4 Sudeste 12 Este 0 1001.9 0.7 30
2019-08-06 23:00:00 27.6 4 Sur 15 Sudoeste 0 1001.8 1.2 32
2019-08-06 22:00:00 27 6 Noroeste 19 Noroeste 0 1001.5 0.8 28
2019-08-06 21:00:00 27.8 4 Sudeste 8 Sur 0 1001.2 0.2 43
2019-08-06 20:00:00 28.9 4 Este 8 Sudeste 0 1000.6 -0.9 41
2019-08-06 19:00:00 29.8 5 Este 10 Sudeste 0 1000.7 -1 42
2019-08-06 18:00:00 29.7 8 Sudeste 14 Sudeste 0 1001 -1.3 38
2019-08-06 17:00:00 30.3 9 Sur 21 Sur 0 1001.5 -1.4 37
2019-08-06 16:00:00 33.3 9 Sudeste 14 Este 0 1001.7 -1.6 34
2019-08-06 15:00:00 33 9 Este 14 Este 0 1002.3 -1 28
2019-08-06 14:00:00 31 10 Sudeste 15 Sur 0 1002.9 -0.5 34
2019-08-06 13:00:00 30.7 10 Sudeste 15 Sudeste 0 1003.3 0 35
2019-08-06 12:00:00 28.8 5 Este 14 Sur 0 1003.3 -0.1 42
2019-08-06 11:00:00 28.9 6 Sudeste 14 Sur 0 1003.4 0.2 36
2019-08-06 10:00:00 26.1 5 Este 8 Este 0 1003.3 0.3 49
2019-08-06 09:00:00 23.9 3 Nordeste 6 Norte 0 1003.4 0.8 60
2019-08-06 08:00:00 22.6 5 Sudoeste 13 Sudoeste 0 1003.2 0.2 63
2019-08-06 07:00:00 23.4 10 Sur 14 Sur 0 1003 -0.6 53
2019-08-06 06:00:00 23.2 3 Sur 9 Sudoeste 0 1002.6 -1.2 49
2019-08-06 05:00:00 22.6 4 Oeste 6 Norte 0 1003 -0.6 52
2019-08-06 04:00:00 23.5 5 Oeste 11 Sur 0 1003.6 -0.1 56
2019-08-06 03:00:00 23.3 4 Noroeste 11 Sur 0 1003.8 0.1 58
2019-08-06 02:00:00 24.2 5 Sudoeste 8 Oeste 0 1003.6 0.1 61
2019-08-06 01:00:00 24.6 3 Sudoeste 7 Sudoeste 0 1003.7 0.9 62
2019-08-06 00:00:00 25.2 4 Este 7 Noroeste 0 1003.7 1.5 62
2019-08-05 23:00:00 25 3 Norte 10 Sur 0 1003.5 1.3 65
2019-08-05 22:00:00 26.1 6 Sur 9 Sur 0 1002.8 0.7 66
2019-08-05 21:00:00 26.7 3 Sudoeste 8 Sur 0 1002.2 -0.2 67
2019-08-05 20:00:00 27.1 5 Sur 13 Sur 0 1002.2 -0.5 64
2019-08-05 19:00:00 29.5 5 Sudeste 11 Sudeste 0 1002.1 -0.8 49
2019-08-05 18:00:00 29.6 4 Este 12 Sudeste 0 1002.4 -1 50
2019-08-05 17:00:00 29.3 9 Sur 14 Sur 0 1002.7 -1 53
2019-08-05 16:00:00 30.1 6 Sudeste 12 Sudeste 0 1002.9 -0.9 47
2019-08-05 15:00:00 30 8 Este 14 Nordeste 0 1003.4 -0.3 49
2019-08-05 14:00:00 28.4 9 Sudeste 20 Sudeste 0 1003.7 0.4 52
2019-08-05 13:00:00 28.5 9 Sudeste 20 Sudeste 0 1003.8 0.1 58
2019-08-05 12:00:00 30.3 5 Sudeste 12 Este 0 1003.7 -0.2 47
2019-08-05 11:00:00 29 5 Sudeste 8 Sudeste 0 1003.3 -0.3 51
2019-08-05 10:00:00 26.5 4 Este 7 Este 0 1003.7 0.5 59
2019-08-05 09:00:00 24.3 3 Nordeste 5 Sur 0 1003.9 0.6 65
2019-08-05 08:00:00 22.2 5 Sudoeste 10 Sur 0 1003.6 0 73
2019-08-05 07:00:00 21.5 3 Noroeste 7 Sudoeste 0 1003.2 -0.5 72
2019-08-05 06:00:00 22.1 0 Calma 6 Norte 0 1003.3 -0.9 75
2019-08-05 05:00:00 22.5 3 Sur 8 Oeste 0 1003.6 -0.6 69
2019-08-05 04:00:00 23.4 5 Sur 14 Sur 0 1003.7 -0.4 66
2019-08-05 03:00:00 23.4 7 Sudoeste 12 Sur 0 1004.2 0.3 66
2019-08-05 02:00:00 24 7 Sudeste 12 Sudeste 0 1004.2 0.7 73
2019-08-05 01:00:00 23.5 3 Norte 10 Sur 0 1004.1 0.6 80
2019-08-05 00:00:00 24.1 4 Sur 10 Sur 0 1003.9 0.7 85
2019-08-04 23:00:00 23.5 3 Sudoeste 5 Norte 0 1003.5 0.6 80
2019-08-04 22:00:00 24.5 4 Norte 10 Sur 0 1003.5 0.7 77
2019-08-04 21:00:00 25.7 6 Sur 10 Sur 0 1003.2 0.2 68
2019-08-04 20:00:00 26.9 7 Sur 10 Sur 0 1002.9 -0.4 64
2019-08-04 19:00:00 27.5 5 Este 12 Sudeste 0 1002.8 -0.7 64
2019-08-04 18:00:00 27.8 8 Sudeste 20 Sur 0 1003 -0.6 64
2019-08-04 17:00:00 27.5 15 Sur 19 Sur 0 1003.3 -0.8 63
2019-08-04 16:00:00 29.7 11 Sur 15 Sudeste 0 1003.5 -1.2 48
2019-08-04 15:00:00 30.2 9 Sudeste 13 Sur 0 1003.6 -1 48
2019-08-04 14:00:00 28 8 Nordeste 13 Nordeste 0 1004.1 -0.6 59
2019-08-04 13:00:00 27.2 8 Sudeste 14 Sudeste 0 1004.7 0 64
2019-08-04 12:00:00 25.7 8 Sudeste 14 Sudeste 0 1004.6 0.1 69
2019-08-04 11:00:00 25 8 Sudeste 12 Sudeste 0 1004.7 0.5 71
2019-08-04 10:00:00 24.9 5 Sudeste 8 Sur 0 1004.7 0.5 68
2019-08-04 09:00:00 22.9 4 Nordeste 6 Nordeste 0 1004.5 0.3 78
2019-08-04 08:00:00 20.7 3 Sudoeste 5 Oeste 0 1004.2 -0.2 84
2019-08-04 07:00:00 20.7 0 Calma 4 Sudoeste 0 1004.2 -0.3 86
2019-08-04 06:00:00 20.9 3 Sur 5 Sur 0 1004.2 -0.6 87
2019-08-04 05:00:00 21 3 Oeste 8 Sudoeste 0 1004.4 -0.5 87
2019-08-04 04:00:00 21 3 Noroeste 5 Norte 0 1004.5 -0.2 84
2019-08-04 03:00:00 21.7 4 Sudoeste 6 Oeste 0 1004.8 0.4 84
2019-08-04 02:00:00 21.4 0 Calma 6 Norte 0 1004.9 0.6 80
2019-08-04 01:00:00 22.2 4 Norte 5 Noroeste 0 1004.7 1.3 79
2019-08-04 00:00:00 23 0 Calma 8 Sudeste 0 1004.4 1.5 78
2019-08-03 23:00:00 23.9 5 Sur 8 Sur 0 1004.3 1.3 76
2019-08-03 22:00:00 23.8 2 Sudoeste 4 Sur 0 1003.4 0.2 76
2019-08-03 21:00:00 24.4 3 Norte 6 Sudeste 0 1002.9 -0.6 72
2019-08-03 20:00:00 24.6 5 Este 12 Sur 0 1003 -1.1 73
2019-08-03 19:00:00 26.3 7 Sudeste 15 Sudeste 0 1003.2 -1.4 68
2019-08-03 18:00:00 26.8 9 Sudeste 17 Sudeste 0 1003.5 -1.2 65
2019-08-03 17:00:00 26.9 9 Sudeste 15 Sudeste 0 1004.1 -1 56
2019-08-03 16:00:00 26.9 7 Este 13 Nordeste 0 1004.6 -0.7 64
2019-08-03 15:00:00 27.2 8 Nordeste 15 Norte 0 1004.7 -0.7 65
2019-08-03 14:00:00 26.2 9 Nordeste 15 Sur 0 1005.1 -0.3 70
2019-08-03 13:00:00 26.2 8 Sudeste 15 Sudeste 0 1005.3 0.1 65
2019-08-03 12:00:00 24.8 10 Sudeste 19 Sur 0 1005.4 0.8 76
2019-08-03 11:00:00 24 12 Sur 18 Sudeste 0 1005.4 1.2 79
2019-08-03 10:00:00 23.8 12 Sur 17 Sur 0 1005.2 1.4 74
2019-08-03 09:00:00 22.5 4 Sur 6 Sur 0 1004.6 1.1 74
2019-08-03 08:00:00 20.5 2 Este 6 Sudeste 0 1004.2 0.4 85
2019-08-03 07:00:00 20.8 3 Oeste 8 Oeste 0 1003.8 -0.3 84
2019-08-03 06:00:00 21.3 3 Sudoeste 7 Oeste 0 1003.5 -0.9 86
2019-08-03 05:00:00 21.6 6 Oeste 7 Sudoeste 0 1003.8 -0.6 85
2019-08-03 04:00:00 21.3 0 Calma 6 Norte 0 1004.1 -0.3 79
2019-08-03 03:00:00 22.2 5 Sudoeste 8 Sur 0 1004.4 0.1 84
2019-08-03 02:00:00 21.9 2 Noroeste 6 Este 0 1004.4 0.6 82
2019-08-03 01:00:00 21.8 4 Noroeste 6 Noroeste 0 1004.4 1.1 73
2019-08-03 00:00:00 22.8 5 Sur 8 Sur 0 1004.3 1.3 82
2019-08-02 23:00:00 23.3 3 Sur 12 Sudoeste 0 1003.8 0.8 83
2019-08-02 22:00:00 23.7 9 Sur 14 Sur 0 1003.3 0.2 84
2019-08-02 21:00:00 24.2 6 Sur 16 Sur 0 1003 -0.5 81
2019-08-02 20:00:00 25.2 11 Sur 19 Sur 0 1003 -0.6 76
2019-08-02 19:00:00 27.1 8 Sur 15 Sur 0 1003.1 -0.4 64
2019-08-02 18:00:00 27.1 11 Sudeste 19 Sur 0 1003.5 -0.2 59
2019-08-02 17:00:00 28.5 13 Sur 23 Sudeste 0 1003.6 -0.3 57
2019-08-02 16:00:00 34 9 Sudeste 16 Sudeste 0 1003.5 -0.7 35
2019-08-02 15:00:00 32.7 8 Este 14 Este 0 1003.7 -0.4 43
2019-08-02 14:00:00 30.2 8 Nordeste 15 Nordeste 0 1003.9 0.1 50
2019-08-02 13:00:00 28.8 9 Nordeste 14 Nordeste 0 1004.2 0.7 53
2019-08-02 12:00:00 27.2 8 Este 14 Este 0 1004.1 0.9 57
2019-08-02 11:00:00 26.1 10 Nordeste 14 Este 0 1003.8 0.9 60
2019-08-02 10:00:00 26.4 6 Este 10 Sudeste 0 1003.5 0.3 54
2019-08-02 09:00:00 24.6 3 Sudeste 5 Noroeste 0 1003.2 0 63
2019-08-02 08:00:00 21.8 3 Oeste 6 Sudoeste 0 1002.9 -0.6 71
2019-08-02 07:00:00 21.2 4 Oeste 8 Sur 0 1003.2 -0.4 75
2019-08-02 06:00:00 21.9 3 Sudoeste 6 Sudoeste 0 1003.2 -0.4 75
2019-08-02 05:00:00 23.2 3 Oeste 11 Sur 0 1003.5 -0.3 73
2019-08-02 04:00:00 23.3 5 Sudoeste 10 Sur 0 1003.6 0.1 76
2019-08-02 03:00:00 23.2 4 Sudoeste 7 Oeste 0 1003.6 0.1 78
2019-08-02 02:00:00 23.4 0 Calma 6 Noroeste 0 1003.8 0.8 81
2019-08-02 01:00:00 24.3 6 Sur 10 Sur 0 1003.5 0.9 80
2019-08-02 00:00:00 23.9 2 Norte 14 Sur 0 1003.5 1.3 81
2019-08-01 23:00:00 24.8 8 Sur 14 Noroeste 0 1003 1.2 78
2019-08-01 22:00:00 24.5 8 Sur 18 Sur 0 1002.6 0.9 79
2019-08-01 21:00:00 24.8 13 Sur 20 Sur 0 1002.2 0.1 77
2019-08-01 20:00:00 25.5 14 Sur 22 Sur 0 1001.8 -0.7 74
2019-08-01 19:00:00 26.4 17 Sur 23 Sur 0 1001.7 -1.4 66
2019-08-01 18:00:00 26.9 13 Sur 21 Sur 0 1002.1 -1.5 65
2019-08-01 17:00:00 27.3 8 Sudeste 17 Sudeste 0 1002.5 -0.9 68
2019-08-01 16:00:00 26.8 10 Sudeste 16 Sudeste 0 1003.1 -0.8 71
2019-08-01 15:00:00 25.8 11 Sudeste 22 Sudeste 0 1003.6 0 74
2019-08-01 14:00:00 25.8 9 Sudeste 20 Sur 0 1003.4 -0.1 75
2019-08-01 13:00:00 24.8 9 Sudeste 17 Sudeste 0 1003.9 0.7 82
2019-08-01 12:00:00 24.8 10 Sudeste 17 Sur 0 1003.6 0.7 83
2019-08-01 11:00:00 23.3 4 Este 11 Sudeste 0 1003.5 1.2 89
2019-08-01 10:00:00 22.8 4 Norte 10 Norte 0 1003.2 0.9 90
2019-08-01 09:00:00 22.3 4 Norte 14 Nordeste 0 1002.9 0.5 92
2019-08-01 08:00:00 22 6 Nordeste 15 Nordeste 0 1002.3 -0.3 93
2019-08-01 07:00:00 22.9 8 Nordeste 18 Este 0 1002.3 -0.4 88
2019-08-01 06:00:00 23.2 10 Este 19 Este 0 1002.4 -0.4 88
2019-08-01 05:00:00 22.5 9 Nordeste 16 Nordeste 0 1002.6 -0.4 89
2019-08-01 04:00:00 22.4 9 Nordeste 14 Nordeste 0 1002.7 -0.4 90
2019-08-01 03:00:00 22.2 5 Norte 20 Este 0 1002.8 -0.3 89
2019-08-01 02:00:00 23.6 12 Este 20 Este 0 1003 0.1 88
2019-08-01 01:00:00 23.6 12 Este 20 Sudeste 0 1003.1 0.9 88
2019-08-01 00:00:00 23.6 10 Este 19 Este 0 1003.1 1.3 88
2019-07-31 23:00:00 23.8 13 Este 19 Este 0 1002.9 1.2 89
2019-07-31 22:00:00 23.7 9 Este 20 Sudeste 0 1002.2 0.7 88
2019-07-31 21:00:00 24.2 11 Este 21 Este 0 1001.8 0.1 84
2019-07-31 20:00:00 24.6 11 Este 24 Este 0 1001.7 -0.4 80
2019-07-31 19:00:00 24.3 8 Sudeste 17 Sudeste 0 1001.5 -1.2 80
2019-07-31 18:00:00 25.2 12 Sur 19 Sur 0 1001.7 -1.2 79
2019-07-31 17:00:00 26.1 11 Sudeste 26 Sudeste 0 1002.1 -1 75
2019-07-31 16:00:00 25.8 13 Sudeste 25 Este 0 1002.7 -0.7 77
2019-07-31 15:00:00 25.9 17 Este 35 Este 0 1002.9 -0.7 77
2019-07-31 14:00:00 26.4 18 Este 28 Sudeste 0 1003.1 -0.4 74
2019-07-31 13:00:00 25.1 14 Este 28 Este 0 1003.4 0.3 79
2019-07-31 12:00:00 23.2 20 Nordeste 29 Nordeste 0 1003.6 0.7 85
2019-07-31 11:00:00 22.6 18 Nordeste 28 Este 0 1003.5 1.4 89
2019-07-31 10:00:00 21.9 11 Este 19 Este 0 1003.1 1.5 93
2019-07-31 09:00:00 20.8 6 Nordeste 12 Nordeste 0 1002.9 1.5 96
2019-07-31 08:00:00 20.5 4 Norte 9 Norte 0 1002.1 0.4 96
2019-07-31 07:00:00 19.9 7 Norte 15 Noroeste 0 1001.6 -0.8 95
2019-07-31 06:00:00 21 6 Nordeste 15 Este 0 1001.4 -0.7 93
2019-07-31 05:00:00 21.9 8 Este 16 Este 0 1001.7 -1 90
2019-07-31 04:00:00 21.7 7 Nordeste 12 Nordeste 0 1002.4 0.4 87
2019-07-31 03:00:00 22.2 3 Norte 15 Sur 0 1002.1 0.2 77
2019-07-31 02:00:00 23 9 Sur 17 Sur 0 1002.7 0.3 65
2019-07-31 01:00:00 24.2 9 Sur 12 Sudoeste 0 1002 0.7 52
2019-07-31 00:00:00 23.6 5 Oeste 12 Sur 0 1001.9 1.4 58
2019-07-30 23:00:00 24.7 6 Sur 17 Sur 0 1002.4 1.8 57
2019-07-30 22:00:00 24.9 9 Sur 17 Sur 0 1001.3 0.6 51
2019-07-30 21:00:00 24.7 12 Sur 19 Sur 0 1000.5 -0.7 64
2019-07-30 20:00:00 25.1 12 Sur 18 Sudeste 0 1000.6 -0.7 73
2019-07-30 19:00:00 27.6 9 Sur 15 Sur 0 1000.7 -0.9 48
2019-07-30 18:00:00 27.4 11 Sur 16 Sur 0 1001.2 -0.5 53
2019-07-30 17:00:00 29 9 Sur 16 Sur 0 1001.3 -0.6 45
2019-07-30 16:00:00 29.7 11 Sur 16 Sudeste 0 1001.6 -0.8 48
2019-07-30 15:00:00 33.7 10 Sudeste 18 Sudeste 0 1001.7 -0.7 30
2019-07-30 14:00:00 32.6 10 Sudeste 15 Sudeste 0 1001.9 -0.6 32
2019-07-30 13:00:00 31 10 Sudeste 20 Noroeste 0 1002.4 0.1 38
2019-07-30 12:00:00 33.2 15 Noroeste 29 Noroeste 0 1002.4 0.3 24
2019-07-30 11:00:00 30.2 6 Sur 23 Noroeste 0 1002.5 0.7 38
2019-07-30 10:00:00 28.8 5 Noroeste 17 Sur 0 1002.3 0.8 33
2019-07-30 09:00:00 25.5 8 Sur 14 Sur 0 1002.1 0.7 51
2019-07-30 08:00:00 23.3 2 Norte 6 Oeste 0 1001.8 0.5 55
2019-07-30 07:00:00 23.9 2 Sudoeste 15 Sudoeste 0 1001.5 0.3 53
2019-07-30 06:00:00 25.3 8 Sudoeste 22 Oeste 0 1001.4 0.1 49
2019-07-30 05:00:00 27.2 6 Norte 35 Oeste 0 1001.3 -0.3 41
2019-07-30 04:00:00 28 17 Noroeste 40 Oeste 0 1001.2 -0.8 37
2019-07-30 03:00:00 28.1 19 Noroeste 42 Noroeste 0 1001.3 -0.6 37
2019-07-30 02:00:00 28.1 24 Noroeste 49 Noroeste 0 1001.6 -0.1 38
2019-07-30 01:00:00 28.1 18 Noroeste 38 Oeste 0 1002 1 39
2019-07-30 00:00:00 28.4 19 Noroeste 39 Noroeste 0 1001.9 1.2 41
2019-07-29 23:00:00 28.6 18 Noroeste 37 Noroeste 0 1001.7 1 38
2019-07-29 22:00:00 26.8 11 Oeste 22 Noroeste 0 1001 0.2 47
2019-07-29 21:00:00 27.7 8 Oeste 19 Oeste 0 1000.7 -0.4 40
2019-07-29 20:00:00 29.7 10 Oeste 24 Oeste 0 1000.7 -0.7 34
2019-07-29 19:00:00 31.4 9 Oeste 18 Noroeste 0 1000.8 -1 34
2019-07-29 18:00:00 32.3 6 Oeste 15 Sudoeste 0 1001.1 -0.9 37
2019-07-29 17:00:00 31 6 Sur 19 Sur 0 1001.4 -0.9 45
2019-07-29 16:00:00 30.9 7 Sudeste 15 Nordeste 0 1001.8 -0.8 46
2019-07-29 15:00:00 30.5 6 Nordeste 24 Este 0 1002 -0.6 47
2019-07-29 14:00:00 30.2 9 Sudeste 22 Oeste 0 1002.3 -0.2 46
2019-07-29 13:00:00 29.3 10 Sudoeste 23 Oeste 0 1002.6 0.2 47
2019-07-29 12:00:00 28.7 8 Sudoeste 20 Sudoeste 0 1002.6 0.5 49
2019-07-29 11:00:00 27.4 6 Oeste 16 Noroeste 0 1002.5 0.8 53
2019-07-29 10:00:00 25.6 4 Este 10 Nordeste 0 1002.4 1.1 56
2019-07-29 09:00:00 24 5 Este 8 Sudoeste 0 1002.1 1.1 60
2019-07-29 08:00:00 20.4 4 Oeste 8 Oeste 0 1001.7 0.9 72
2019-07-29 07:00:00 19.5 2 Sur 7 Oeste 0 1001.3 0.3 71
2019-07-29 06:00:00 19.3 3 Sudoeste 9 Sur 0 1001 -0.2 73
2019-07-29 05:00:00 19.1 4 Sur 7 Oeste 0 1000.8 -0.6 75
2019-07-29 04:00:00 19 5 Noroeste 9 Noroeste 0 1001 -0.4 76
2019-07-29 03:00:00 18.9 4 Noroeste 10 Sudoeste 0 1001.2 -0.1 80
2019-07-29 02:00:00 19.4 3 Sudoeste 9 Sudoeste 0 1001.4 0.3 77
2019-07-29 01:00:00 19.6 5 Noroeste 8 Sudoeste 0 1001.4 0.9 74
2019-07-29 00:00:00 20.2 3 Norte 9 Oeste 0 1001.3 1.5 71
2019-07-28 23:00:00 21 5 Sudoeste 9 Sudoeste 0 1001.1 1.8 67
2019-07-28 22:00:00 22.4 5 Sudoeste 11 Sudeste 0 1000.5 1.2 60
2019-07-28 21:00:00 24.4 4 Este 20 Noroeste 0 999.8 0.3 54
2019-07-28 20:00:00 25.6 8 Oeste 26 Noroeste 0 999.3 -0.5 51
2019-07-28 19:00:00 26.8 10 Oeste 30 Sudoeste 0 999.3 -1.1 51
2019-07-28 18:00:00 27.3 12 Oeste 37 Noroeste 0 999.5 -1.3 49
2019-07-28 17:00:00 26.9 16 Oeste 41 Oeste 0 999.8 -1.3 53
2019-07-28 16:00:00 27.4 13 Oeste 28 Sudoeste 0 1000.4 -1 52
2019-07-28 15:00:00 26.9 10 Oeste 34 Oeste 0 1000.8 -0.5 55
2019-07-28 14:00:00 26.1 12 Sudoeste 37 Noroeste 0 1001.1 -0.6 58
2019-07-28 13:00:00 25.2 13 Oeste 33 Sudoeste 0 1001.4 -0.3 61
2019-07-28 12:00:00 24.4 13 Oeste 35 Oeste 0 1001.3 -0.3 64
2019-07-28 11:00:00 24.2 12 Oeste 29 Noroeste 0 1001.7 0.5 66
2019-07-28 10:00:00 23.8 8 Oeste 19 Noroeste 0 1001.7 0.7 67
2019-07-28 09:00:00 21.2 5 Oeste 22 Noroeste 0 1001.6 0.7 80
2019-07-28 08:00:00 20.5 12 Noroeste 25 Oeste 0 1001.2 0 82
2019-07-28 07:00:00 20.8 7 Noroeste 20 Noroeste 0 1001 -0.6 85
2019-07-28 06:00:00 21 9 Noroeste 19 Noroeste 0 1000.9 -1.3 85
2019-07-28 05:00:00 21.7 6 Noroeste 12 Norte 0 1001.2 -1.4 82
2019-07-28 04:00:00 21.5 5 Este 10 Este 0 1001.6 -1.1 82
2019-07-28 03:00:00 21.5 4 Sudoeste 21 Sudoeste 0 1002.2 -1.2 85
2019-07-28 02:00:00 22 8 Sudoeste 24 Oeste 0 1002.6 -0.7 82
2019-07-28 01:00:00 21.9 10 Oeste 26 Oeste 0 1002.7 -0.2 79
2019-07-28 00:00:00 21.7 8 Oeste 23 Oeste 0 1003.4 0.8 83
2019-07-27 23:00:00 21.6 8 Oeste 21 Oeste 0 1003.3 0.8 82
2019-07-26 12:00:00 26.4 9 Noroeste 33 Sudoeste 0 1004.9 0.1 62
2019-07-26 11:00:00 26.2 13 Sudoeste 35 Sudoeste 0 1004.8 0.4 61
2019-07-26 10:00:00 25.1 10 Sudoeste 28 Sudoeste 0 1004.8 0.6 66
2019-07-26 09:00:00 24.1 10 Sudoeste 27 Oeste 0 1004.8 1.4 69
2019-07-26 08:00:00 22.4 8 Oeste 26 Noroeste 0 1004.4 1 71
2019-07-26 07:00:00 21.9 6 Norte 23 Oeste 0 1004.2 0.7 69
2019-07-26 06:00:00 22.2 6 Sudoeste 19 Sudoeste 0 1003.4 -0.3 65
2019-07-26 05:00:00 22.7 7 Sudoeste 23 Oeste 0 1003.4 -0.8 62
2019-07-26 04:00:00 22.6 13 Sudoeste 41 Noroeste 0 1003.5 -1 68
2019-07-26 03:00:00 23.7 17 Oeste 44 Noroeste 0 1003.7 -0.7 66
2019-07-26 02:00:00 24 12 Norte 30 Nordeste 0 1004.2 -0.1 62
2019-07-26 01:00:00 22.8 5 Noroeste 10 Noroeste 0 1004.5 0.6 73
2019-07-26 00:00:00 24.4 6 Este 16 Sudeste 0 1004.4 0.9 66
2019-07-25 23:00:00 24.2 5 Sudeste 9 Este 0 1004.3 1.2 67
2019-07-25 22:00:00 23.4 4 Norte 10 Este 0 1003.9 0.7 80
2019-07-25 21:00:00 24.3 4 Nordeste 12 Norte 0 1003.5 0.2 79
2019-07-25 20:00:00 25.9 8 Sudeste 13 Sur 0 1003.1 -0.4 75
2019-07-25 19:00:00 26.5 11 Sur 23 Sudeste 0 1003.2 -0.6 71
2019-07-25 18:00:00 26.6 13 Sudeste 21 Sudeste 0 1003.3 -0.7 71
2019-07-25 17:00:00 28.2 10 Sudeste 19 Sur 0 1003.5 -0.9 66
2019-07-25 16:00:00 30.9 12 Sudeste 17 Sudeste 0 1003.8 -1 57
2019-07-25 15:00:00 30.6 11 Noroeste 22 Norte 0 1004 -0.6 58
2019-07-25 14:00:00 29 10 Noroeste 23 Norte 0 1004.4 0 65
2019-07-25 13:00:00 25.9 8 Nordeste 14 Nordeste 0 1004.8 0.4 75
2019-07-25 12:00:00 26.7 8 Sudeste 14 Sur 0 1004.6 0.6 73
2019-07-25 11:00:00 26.5 9 Sudeste 15 Sudeste 0 1004.4 0.6 75
2019-07-25 10:00:00 25 7 Sudeste 14 Sudeste 0 1004.4 1 80
2019-07-25 09:00:00 24 3 Sudeste 12 Sudeste 0 1004 0.6 86
2019-07-25 08:00:00 23.5 7 Sur 12 Sur 0 1003.8 0.3 90
2019-07-25 07:00:00 23.5 5 Sur 11 Sur 0 1003.4 -0.2 89
2019-07-25 06:00:00 23.5 7 Sur 12 Sur 0 1003.4 -0.7 88
2019-07-25 05:00:00 23.5 6 Sur 14 Sur 0 1003.5 -1.1 88
2019-07-25 04:00:00 23.9 6 Sudeste 10 Sur 0 1003.6 -1.1 86
2019-07-25 03:00:00 24 5 Este 10 Sur 0 1004.1 -0.2 85
2019-07-25 02:00:00 23.9 5 Sudeste 12 Sudeste 0 1004.6 0.8 87
2019-07-25 01:00:00 23.5 8 Sur 13 Sudeste 0 1004.7 1.2 90
2019-07-25 00:00:00 23.5 6 Sudeste 13 Sudeste 0 1004.3 1.3 91
2019-07-24 23:00:00 23.3 6 Sur 12 Sudeste 0 1003.8 0.8 92
2019-07-24 22:00:00 23.3 8 Sudeste 15 Sudeste 0 1003.5 0.3 92
2019-07-24 21:00:00 23.9 8 Sur 15 Sur 0 1003 -0.5 89
2019-07-24 20:00:00 24.4 11 Sudeste 17 Sudeste 0 1003 -1 86
2019-07-24 19:00:00 25.9 10 Sudeste 18 Sudeste 0 1003.2 -1.3 78
2019-07-24 18:00:00 26.5 10 Sudeste 18 Sudeste 0 1003.5 -1.2 76
2019-07-24 17:00:00 27.6 9 Este 19 Este 0 1004 -1 72
2019-07-24 16:00:00 26.6 13 Nordeste 21 Este 0 1004.5 -0.5 75
2019-07-24 15:00:00 26.9 10 Este 19 Nordeste 0 1004.7 -0.4 74
2019-07-24 14:00:00 24.9 13 Nordeste 20 Nordeste 0 1005 0.2 83
2019-07-24 13:00:00 26.9 10 Nordeste 18 Este 0 1005 0.3 74
2019-07-24 12:00:00 24.8 6 Sudeste 12 Este 0 1005.1 0.8 83
2019-07-24 11:00:00 23.7 6 Nordeste 10 Este 0 1004.8 0.8 87
2019-07-24 10:00:00 22.8 5 Norte 8 Norte 0 1004.7 1 93
2019-07-24 09:00:00 22.6 4 Este 7 Este 0 1004.3 0.6 96
2019-07-24 08:00:00 22 3 Norte 5 Norte 0 1004 -0.3 97
2019-07-24 07:00:00 21.7 3 Norte 9 Sur 0 1003.7 -0.9 96
2019-07-24 06:00:00 22.5 6 Sur 10 Sur 0 1003.7 -1.3 95
2019-07-24 05:00:00 22 3 Norte 9 Nordeste 0 1004.3 -0.8 95
2019-07-24 04:00:00 21.9 4 Noroeste 9 Nordeste 0 1004.6 -0.7 94
2019-07-24 03:00:00 22 3 Noroeste 7 Norte 0 1005 -0.4 95
2019-07-24 02:00:00 21.8 4 Norte 10 Nordeste 0 1005.1 0.2 94
2019-07-24 01:00:00 22.6 7 Norte 15 Este 0 1005.3 1 91
2019-07-24 00:00:00 23.4 9 Nordeste 15 Nordeste 0 1005.4 1.3 91
2019-07-23 23:00:00 23 5 Norte 10 Nordeste 0 1004.9 1.1 91
2019-07-23 22:00:00 23.2 4 Nordeste 12 Este 0 1004.3 0.3 90
2019-07-23 21:00:00 23.4 5 Norte 12 Norte 0 1004.1 -0.5 88
2019-07-23 20:00:00 24.1 5 Norte 15 Nordeste 0 1003.8 -1.2 85
2019-07-23 19:00:00 24.6 9 Nordeste 15 Nordeste 0 1004 -1.5 83
2019-07-23 18:00:00 24.9 10 Nordeste 21 Nordeste 0 1004.6 -1.3 81
2019-07-23 17:00:00 25.1 13 Nordeste 19 Nordeste 0 1005 -1.1 80
2019-07-23 16:00:00 25 12 Nordeste 17 Nordeste 0 1005.5 -0.6 80
2019-07-23 15:00:00 24.3 9 Nordeste 19 Nordeste 0 1005.9 0 80
2019-07-23 14:00:00 25.1 10 Nordeste 19 Nordeste 0 1006.1 0.1 78
2019-07-23 13:00:00 24.9 11 Nordeste 20 Nordeste 0 1006.1 0.3 81
2019-07-23 12:00:00 24.6 10 Este 22 Este 0 1005.9 0.2 84
2019-07-23 11:00:00 24.2 10 Nordeste 15 Este 0 1006 0.4 87
2019-07-23 10:00:00 23 7 Nordeste 16 Este 0 1005.8 0.4 92
2019-07-23 09:00:00 22.3 7 Nordeste 13 Nordeste 0 1005.7 0.5 94
2019-07-23 08:00:00 21.9 5 Nordeste 9 Nordeste 0 1005.6 0.1 95
2019-07-23 07:00:00 21.8 4 Nordeste 11 Nordeste 0 1005.4 -0.3 95
2019-07-23 06:00:00 22.8 4 Sudoeste 10 Nordeste 0 1005.2 -1 94
2019-07-23 05:00:00 22.5 3 Oeste 9 Norte 0 1005.5 -0.9 94
2019-07-23 04:00:00 23 6 Nordeste 21 Este 0 1005.7 -1 89
2019-07-23 03:00:00 23.8 13 Este 23 Este 0 1006.2 -0.7 92
2019-07-23 02:00:00 23.3 13 Nordeste 24 Nordeste 0 1006.4 -0.3 93
2019-07-23 01:00:00 23.1 14 Este 24 Este 0 1006.7 0.4 91
2019-07-23 00:00:00 23.2 14 Este 24 Este 0 1006.9 1.2 90
2019-07-22 23:00:00 23.4 12 Nordeste 27 Este 0 1006.7 1.2 89
2019-07-22 22:00:00 24.3 17 Este 26 Este 0 1006.3 0.7 88
2019-07-22 21:00:00 24.4 17 Este 25 Este 0 1005.7 -0.4 86
2019-07-22 20:00:00 24.8 17 Este 27 Este 0 1005.5 -1.4 84
2019-07-22 19:00:00 25.3 15 Este 29 Este 0 1005.6 -1.9 82
2019-07-22 18:00:00 25.6 20 Este 34 Este 0 1006.1 -1.8 80
2019-07-22 17:00:00 27 21 Este 35 Este 0 1006.9 -1.3 74
2019-07-22 16:00:00 26.8 21 Este 32 Este 0 1007.5 -1.1 74
2019-07-22 15:00:00 27 19 Este 35 Este 0 1007.9 -0.7 74
2019-07-22 14:00:00 26.7 19 Este 32 Este 0 1008.2 -0.1 77
2019-07-22 13:00:00 24.7 19 Este 32 Este 0 1008.6 0.5 89
2019-07-22 12:00:00 24 17 Este 31 Este 0 1008.6 0.4 94
2019-07-22 11:00:00 24.2 14 Este 23 Sudeste 0 1008.3 0.4 94
2019-07-22 10:00:00 24.3 11 Este 29 Este 0 1008.1 0.4 88
2019-07-22 09:00:00 23.9 18 Este 29 Este 0.2 1008.2 0.6 92
2019-07-22 08:00:00 23.3 12 Este 20 Este 0 1007.9 0.2 94
2019-07-22 07:00:00 23.6 10 Este 16 Este 0 1007.7 -0.2 95
2019-07-22 06:00:00 23.3 5 Sudeste 12 Este 0 1007.6 -0.5 95
2019-07-22 05:00:00 23.3 5 Sudeste 10 Sur 0 1007.7 -0.7 95
2019-07-22 04:00:00 22.9 6 Sudeste 14 Sur 0 1007.9 -0.7 94
2019-07-22 03:00:00 22.6 7 Sur 14 Sur 0 1008.1 -0.5 92
2019-07-22 02:00:00 22.8 9 Sur 19 Este 0 1008.4 0.1 90
2019-07-22 01:00:00 23.4 12 Sudeste 18 Este 0 1008.6 1.1 90
2019-07-22 00:00:00 23.2 10 Sudeste 18 Sur 0 1008.6 2 95
2019-07-21 23:00:00 23.5 10 Sur 19 Sur 0 1008.3 2.2 95
2019-07-21 22:00:00 23.6 13 Sur 22 Sur 0 1007.5 1.7 94
2019-07-21 21:00:00 24 10 Sur 18 Sur 0 1006.6 0.2 90
2019-07-21 20:00:00 24.5 12 Sur 21 Sur 0 1006.1 -0.7 89
2019-07-21 19:00:00 25.5 11 Sur 19 Sudoeste 0 1005.8 -1.3 83
2019-07-21 18:00:00 25.9 11 Sur 20 Sudeste 0 1006.4 -1 81
2019-07-21 17:00:00 25.4 12 Sudeste 21 Sudeste 0 1006.8 -0.9 80
2019-07-21 16:00:00 26.4 10 Sudeste 19 Sudeste 0 1007.1 -0.8 74
2019-07-21 15:00:00 27.8 10 Sudeste 17 Sur 0 1007.4 -0.1 69
2019-07-21 14:00:00 26.4 10 Nordeste 17 Nordeste 0 1007.7 0.6 71
2019-07-21 13:00:00 25.9 10 Nordeste 16 Nordeste 0 1007.9 1.3 73
2019-07-21 12:00:00 26.1 9 Nordeste 14 Nordeste 0 1007.5 1.1 73
2019-07-21 11:00:00 25.2 7 Nordeste 12 Nordeste 0 1007.1 1.1 76
2019-07-21 10:00:00 25.5 6 Nordeste 9 Este 0 1006.6 0.9 75
2019-07-21 09:00:00 24.1 3 Nordeste 6 Este 0 1006.4 0.9 82
2019-07-21 08:00:00 22.1 3 Sudoeste 6 Sur 0 1006 0.5 89
2019-07-21 07:00:00 22.1 3 Sudeste 8 Sur 0 1005.7 -0.4 87
2019-07-21 06:00:00 22.6 5 Sur 10 Sur 0 1005.5 -1.1 85
2019-07-21 05:00:00 22.5 6 Sur 10 Sur 0 1005.5 -1.2 85
2019-07-21 04:00:00 22.7 6 Sur 8 Sur 0 1006.1 -0.6 85
2019-07-21 03:00:00 23.3 7 Sur 11 Sur 0 1006.6 0.4 84
2019-07-21 02:00:00 23.7 6 Sur 10 Sur 0 1006.7 1.1 82
2019-07-21 01:00:00 24.4 7 Sur 12 Sudoeste 0 1006.7 1.9 79
2019-07-21 00:00:00 25.3 7 Sur 14 Sur 0 1006.2 2.2 73
2019-07-20 23:00:00 25.5 9 Sur 15 Sur 0 1005.6 2.2 72
2019-07-20 22:00:00 25.9 7 Sur 15 Sur 0 1004.8 1.9 71
2019-07-20 21:00:00 26.5 5 Sur 10 Sur 0 1004 0.9 68
2019-07-20 20:00:00 26.8 6 Sudeste 10 Sur 0 1003.4 0.2 66
2019-07-20 19:00:00 27.8 6 Sudeste 13 Este 0 1002.9 -0.7 63
2019-07-20 18:00:00 29.1 10 Sudeste 16 Sudeste 0 1003.1 -0.6 58
2019-07-20 17:00:00 29.9 9 Sur 16 Sur 0 1003.2 -0.8 54
2019-07-20 16:00:00 30.1 9 Sudeste 17 Sur 0 1003.6 -0.5 55
2019-07-20 15:00:00 30 10 Sur 20 Sur 0 1003.7 0 53
2019-07-20 14:00:00 28.5 6 Este 14 Norte 0 1004 0.7 61
2019-07-20 13:00:00 26.4 10 Nordeste 15 Nordeste 0 1004.1 0.9 71
2019-07-20 12:00:00 25.3 9 Nordeste 16 Sur 0 1003.7 0.8 80
2019-07-20 11:00:00 26.1 4 Nordeste 10 Sur 0 1003.3 0.8 74
2019-07-20 10:00:00 25 9 Sur 12 Sur 0 1003.2 1 81
2019-07-20 09:00:00 23.8 5 Sudeste 10 Sur 0 1002.9 0.7 87
2019-07-20 08:00:00 22.6 5 Sur 12 Sur 0 1002.5 0.4 92
2019-07-20 07:00:00 22.5 6 Sur 11 Sudoeste 0 1002.2 -0.2 92
2019-07-20 06:00:00 22.7 6 Sur 12 Sudeste 0 1002.2 -0.6 90
2019-07-20 05:00:00 23.2 8 Sudeste 15 Este 0 1002.1 -1.2 89
2019-07-20 04:00:00 23.3 9 Este 19 Este 0 1002.4 -0.9 89
2019-07-20 03:00:00 23.4 12 Este 21 Este 0 1002.8 -0.3 88
2019-07-20 02:00:00 23.6 9 Este 17 Este 0 1003.3 0.9 87
2019-07-20 01:00:00 23.2 7 Nordeste 19 Este 0 1003.3 1.4 87
2019-07-20 00:00:00 22.9 12 Este 23 Este 0 1003.1 1.6 88
2019-07-19 23:00:00 23.5 12 Este 19 Este 0 1002.4 0.8 86
2019-07-19 22:00:00 23.5 10 Este 22 Este 0 1001.9 0.3 87
2019-07-19 21:00:00 23 12 Nordeste 21 Este 0 1001.5 -0.5 88
2019-07-19 20:00:00 23.4 13 Nordeste 23 Nordeste 0 1001.6 -0.7 87
2019-07-19 19:00:00 24.4 11 Nordeste 24 Sudeste 0 1001.6 -1.2 82
2019-07-19 18:00:00 25 14 Este 24 Este 0 1002 -1.3 81
2019-07-19 17:00:00 24.8 15 Este 29 Este 0 1002.3 -1.4 82
2019-07-19 16:00:00 25 17 Este 28 Este 0 1002.8 -1 79
2019-07-19 15:00:00 25.7 17 Este 29 Sudeste 0 1003.3 -0.5 75
2019-07-19 14:00:00 24 16 Este 25 Este 0 1003.7 0 80
2019-07-19 13:00:00 23.3 13 Este 23 Este 0 1003.8 0 84
2019-07-19 12:00:00 23.5 15 Este 26 Este 0 1003.8 0.1 82
2019-07-19 11:00:00 23.2 18 Este 27 Este 0 1003.7 0.3 80
2019-07-19 10:00:00 22.1 15 Este 26 Este 0 1003.8 0.4 85
2019-07-19 09:00:00 20.3 9 Este 16 Este 0 1003.7 0.5 93
2019-07-19 08:00:00 19.5 7 Este 12 Nordeste 0 1003.4 0.2 97
2019-07-19 07:00:00 18.9 3 Norte 8 Norte 0 1003.4 0.1 96
2019-07-19 06:00:00 19.4 5 Norte 8 Este 0 1003.2 -0.4 95
2019-07-19 05:00:00 20.2 4 Sudeste 10 Sudoeste 0 1003.2 -0.7 94
2019-07-19 04:00:00 20.2 6 Sur 13 Sudoeste 0 1003.3 -0.7 92
2019-07-19 03:00:00 20.1 8 Sudoeste 15 Sur 0 1003.6 -0.4 88
2019-07-19 02:00:00 19.8 9 Sudoeste 15 Sudoeste 0 1003.9 0.3 87
2019-07-19 01:00:00 20.3 8 Sur 12 Sur 0 1004 0.8 92
2019-07-19 00:00:00 20.6 5 Sur 10 Sur 0 1004 1 86